Mont Saint Michel — FNMT — position and weather

sailwx.info

Track history (hours):
 
Tides and Currents Weather Stations Pressure Air Temp Water Temp Dewpoint Dewpoint Depression Visibility Wind Speed Wind Dir Waves Ship Positions

Mont Saint Michel

Last reported at 2015-Jul-04 18:33 UTC. Time now 2015-Jul-04 19:02 UTC.
Position N 49°30' W 000°18'.

Length 173 m; beam 29 m.

Type: Ship. MMSI: 227023100.

Date/timePositionNaut miles runAvg speedWind from/ knotsBaromVisibWave heightAir tempDewpointWater temp
2015-Jul-04 18:33N 49°30' W 000°18'2120.6
2015-Jul-04 17:33N 49°49' W 000°30'2020.2
2015-Jul-04 16:33N 50°08' W 000°40'2020.3
2015-Jul-04 15:33N 50°27' W 000°51'2019.6
2015-Jul-04 14:33N 50°44' W 001°05'4 4.3
2015-Jul-04 13:33N 50°49' W 001°06'0 0.0
2015-Jul-04 12:33N 50°49' W 001°06'7 7.3
2015-Jul-04 11:34N 50°42' W 001°01'1918.9
2015-Jul-04 10:33N 50°24' W 000°49'2220.6
2015-Jul-04 09:30N 50°04' W 000°39'1819.5
2015-Jul-04 08:33N 49°47' W 000°28'2019.7
2015-Jul-04 07:33N 49°28' W 000°18'1111.2
2015-Jul-04 06:33N 49°17' W 000°15'0 0.0
2015-Jul-04 05:33N 49°17' W 000°15'0 0.1
2015-Jul-04 04:33N 49°17' W 000°15'1414.5
2015-Jul-04 03:33N 49°31' W 000°21'1919.0
2015-Jul-04 02:33N 49°49' W 000°32'1514.7
2015-Jul-04 01:33N 50°03' W 000°40'2015.1
2015-Jul-04 00:16N 50°21' W 000°52'1217.4
2015-Jul-03 23:33N 50°33' W 000°55'1313.1
2015-Jul-03 22:33N 50°45' W 001°05'4 4.2
2015-Jul-03 21:33N 50°49' W 001°06'0 0.0
2015-Jul-03 20:33N 50°49' W 001°06'6 6.0
2015-Jul-03 19:33N 50°43' W 001°01'1818.0
2015-Jul-03 18:33N 50°27' W 000°50'4120.7
2015-Jul-03 16:33N 49°48' W 000°29'2121.0
2015-Jul-03 15:33N 49°28' W 000°19'1110.8
2015-Jul-03 14:33N 49°17' W 000°15'0 0.0
2015-Jul-03 13:33N 49°17' W 000°15'2 2.5
2015-Jul-03 12:33N 49°20' W 000°14'2020.3
2015-Jul-03 11:33N 49°39' W 000°26'2019.5
2015-Jul-03 10:33N 49°57' W 000°35'2020.1
2015-Jul-03 09:32N 50°17' W 000°45'2020.8
2015-Jul-03 08:33N 50°36' W 000°56'1414.2
2015-Jul-03 07:33N 50°49' W 001°06'0 0.0
2015-Jul-03 06:33N 50°49' W 001°06'0 0.1
2015-Jul-03 05:33N 50°49' W 001°06'1212.3
2015-Jul-03 04:34N 50°38' W 000°58'1413.6
2015-Jul-03 03:33N 50°24' W 000°53'1211.6
2015-Jul-03 02:31N 50°13' W 000°47'1212.3
2015-Jul-03 01:33N 50°02' W 000°41'1312.6
2015-Jul-03 00:33N 49°50' W 000°33'1212.2
2015-Jul-02 23:33N 49°39' W 000°26'1111.1
2015-Jul-02 22:33N 49°29' W 000°19'1111.2
2015-Jul-02 21:33N 49°18' W 000°15'1 0.5
2015-Jul-02 20:34N 49°17' W 000°15'0 0.0
2015-Jul-02 19:34N 49°17' W 000°15'1211.7
2015-Jul-02 18:33N 49°29' W 000°16'2019.6
2015-Jul-02 17:33N 49°47' W 000°27'4120.0
2015-Jul-02 15:32N 50°24' W 000°52'2020.0
2015-Jul-02 14:33N 50°43' W 001°02'6 6.2
2015-Jul-02 13:34N 50°49' W 001°06'0 0.0
2015-Jul-02 12:33N 50°49' W 001°06'6 6.3
2015-Jul-02 11:34N 50°43' W 001°02'2020.2
2015-Jul-02 10:34N 50°25' W 000°46'2120.8
2015-Jul-02 09:33N 50°05' W 000°40'2020.0
2015-Jul-02 08:34N 49°46' W 000°30'2020.2
2015-Jul-02 07:34N 49°27' W 000°19'1010.2
2015-Jul-02 06:33N 49°17' W 000°15'0 0.0
2015-Jul-02 05:33N 49°17' W 000°15'0 0.1
2015-Jul-02 04:33N 49°17' W 000°15'1413.9
2015-Jul-02 03:34N 49°31' W 000°20'1717.0
2015-Jul-02 02:34N 49°47' W 000°29'1211.4
2015-Jul-02 01:31N 49°58' W 000°35'1110.7
2015-Jul-02 00:32N 50°08' W 000°38'1514.9
2015-Jul-01 23:32N 50°22' W 000°45'1515.7
2015-Jul-01 22:33N 50°36' W 000°57'1413.6
2015-Jul-01 21:34N 50°48' W 001°07'1 1.1
2015-Jul-01 20:34N 50°49' W 001°06'0 0.0
2015-Jul-01 19:34N 50°49' W 001°06'0 0.0
2015-Jul-01 18:34N 50°49' W 001°06'5 4.8
2015-Jul-01 17:33N 50°44' W 001°04'1716.9
2015-Jul-01 16:33N 50°29' W 000°53'1818.5
2015-Jul-01 15:33N 50°11' W 000°43'2019.6
2015-Jul-01 14:33N 49°53' W 000°32'1919.2
2015-Jul-01 13:33N 49°35' W 000°21'1818.3
2015-Jul-01 12:34N 49°17' W 000°15'0 0.1
2015-Jul-01 11:33N 49°17' W 000°15'0 0.0
2015-Jul-01 10:33N 49°17' W 000°15'0 0.0
2015-Jul-01 09:33N 49°17' W 000°15'0 0.0
2015-Jul-01 08:33N 49°17' W 000°15'0 0.0
2015-Jul-01 07:33N 49°17' W 000°15'0 0.0
2015-Jul-01 06:33N 49°17' W 000°15'0 0.0
2015-Jul-01 05:33N 49°17' W 000°15'1111.4
2015-Jul-01 04:33N 49°28' W 000°19'1817.7
2015-Jul-01 03:34N 49°45' W 000°29'1514.8
2015-Jul-01 02:32N 49°59' W 000°38'1414.1
2015-Jul-01 01:33N 50°12' W 000°45'1414.1
2015-Jul-01 00:34N 50°25' W 000°52'1414.0
2015-Jun-30 23:33N 50°39' W 000°59'1111.0
2015-Jun-30 22:33N 50°49' W 001°06'0 0.1
2015-Jun-30 21:33N 50°49' W 001°06'0 0.0
2015-Jun-30 20:33N 50°49' W 001°06'7 7.0
2015-Jun-30 19:33N 50°42' W 001°02'2020.0
2015-Jun-30 18:33N 50°24' W 000°48'2020.3
2015-Jun-30 17:33N 50°04' W 000°40'2020.4
2015-Jun-30 16:33N 49°45' W 000°30'2120.7
2015-Jun-30 15:33N 49°26' W 000°18'9 8.9
2015-Jun-30 14:33N 49°17' W 000°15'0 0.0
2015-Jun-30 13:33N 49°17' W 000°15'3 2.6
2015-Jun-30 12:33N 49°20' W 000°14'2019.8
2015-Jun-30 11:34N 49°39' W 000°25'2120.5
2015-Jun-30 10:33N 49°58' W 000°35'2120.7
2015-Jun-30 09:33N 50°17' W 000°46'2120.8
2015-Jun-30 08:33N 50°37' W 000°57'1313.0
2015-Jun-30 07:33N 50°49' W 001°06'0 0.0
2015-Jun-30 06:33N 50°49' W 001°06'0 0.1
2015-Jun-30 05:33N 50°49' W 001°06'1111.3
2015-Jun-30 04:33N 50°39' W 000°58'1111.3
2015-Jun-30 03:33N 50°28' W 000°52'1111.4
2015-Jun-30 02:33N 50°17' W 000°47'1111.3
2015-Jun-30 01:33N 50°06' W 000°43'1211.8
2015-Jun-30 00:33N 49°56' W 000°34'1211.7
2015-Jun-29 23:33N 49°45' W 000°26'1211.9
2015-Jun-29 22:33N 49°34' W 000°22'1211.6
2015-Jun-29 21:33N 49°23' W 000°15'5 5.4
2015-Jun-29 20:33N 49°17' W 000°15'0 0.0
2015-Jun-29 19:33N 49°17' W 000°15'1211.6
2015-Jun-29 18:33N 49°29' W 000°19'1918.6
2015-Jun-29 17:33N 49°46' W 000°30'2019.8
2015-Jun-29 16:33N 50°04' W 000°43'1919.3
2015-Jun-29 15:33N 50°22' W 000°52'1919.2
2015-Jun-29 14:33N 50°41' W 000°58'9 9.2
2015-Jun-29 13:33N 50°49' W 001°06'0 0.0
2015-Jun-29 12:33N 50°49' W 001°06'4 4.2
2015-Jun-29 11:34N 50°45' W 001°05'1817.6
2015-Jun-29 10:33N 50°29' W 000°52'1817.8
2015-Jun-29 09:34N 50°12' W 000°44'2019.5
2015-Jun-29 08:33N 49°53' W 000°35'1919.4
2015-Jun-29 07:33N 49°35' W 000°23'1817.8
2015-Jun-29 06:33N 49°18' W 000°15'1 1.0
2015-Jun-29 05:33N 49°17' W 000°15'0 0.0
2015-Jun-29 04:34N 49°17' W 000°15'1313.3
2015-Jun-29 03:34N 49°30' W 000°18'1615.6
2015-Jun-29 02:33N 49°44' W 000°29'1515.0
2015-Jun-29 01:34N 49°58' W 000°39'1514.4
2015-Jun-29 00:30N 50°11' W 000°51'1616.0
2015-Jun-28 23:30N 50°27' W 000°54'1516.1
2015-Jun-28 22:33N 50°42' W 000°59'8 8.2
2015-Jun-28 21:33N 50°49' W 001°06'0 0.0
2015-Jun-28 20:33N 50°49' W 001°06'4 4.0
2015-Jun-28 19:33N 50°45' W 001°05'2018.4
2015-Jun-28 18:29N 50°27' W 000°53'1818.9
2015-Jun-28 17:33N 50°11' W 000°41'1919.1
2015-Jun-28 16:33N 49°53' W 000°32'1919.3
2015-Jun-28 15:33N 49°35' W 000°21'1717.2
2015-Jun-28 14:33N 49°18' W 000°15'1 0.5
2015-Jun-28 13:33N 49°17' W 000°15'2 2.1
2015-Jun-28 12:34N 49°19' W 000°15'1919.1
2015-Jun-28 11:33N 49°38' W 000°24'2019.6
2015-Jun-28 10:33N 49°56' W 000°34'1919.4
2015-Jun-28 09:34N 50°14' W 000°44'2020.2
2015-Jun-28 08:34N 50°33' W 000°56'1616.3
2015-Jun-28 07:33N 50°48' W 001°07'1 1.0
2015-Jun-28 06:33N 50°49' W 001°06'0 0.1
2015-Jun-28 05:34N 50°49' W 001°06'1211.8
2015-Jun-28 04:33N 50°38' W 000°58'1211.8
2015-Jun-28 03:33N 50°27' W 000°51'1110.9
2015-Jun-28 02:33N 50°17' W 000°44'1110.8
2015-Jun-28 01:33N 50°08' W 000°37'1111.1
2015-Jun-28 00:33N 49°57' W 000°29'1111.0
2015-Jun-27 23:33N 49°46' W 000°28'1111.4
2015-Jun-27 22:33N 49°36' W 000°23'1111.4
2015-Jun-27 21:33N 49°25' W 000°17'8 7.6
2015-Jun-27 20:33N 49°17' W 000°15'0 0.0
2015-Jun-27 19:33N 49°17' W 000°15'1111.5
2015-Jun-27 18:34N 49°29' W 000°17'2019.7
2015-Jun-27 17:34N 49°47' W 000°28'2019.9
2015-Jun-27 16:34N 50°06' W 000°39'1919.4
2015-Jun-27 15:33N 50°24' W 000°50'1918.8
2015-Jun-27 14:34N 50°42' W 000°58'8 8.4
2015-Jun-27 13:34N 50°49' W 001°06'0 0.0
2015-Jun-27 12:34N 50°49' W 001°06'5 5.1
2015-Jun-27 11:33N 50°44' W 001°03'1818.0
2015-Jun-27 10:33N 50°27' W 000°52'1918.8
2015-Jun-27 09:33N 50°10' W 000°40'1919.2
2015-Jun-27 08:33N 49°52' W 000°31'1919.0
2015-Jun-27 07:34N 49°34' W 000°21'1716.7
2015-Jun-27 06:33N 49°18' W 000°15'0 0.3
2015-Jun-27 05:33N 49°17' W 000°15'0 0.1
2015-Jun-27 04:34N 49°17' W 000°15'1515.1
2015-Jun-27 03:33N 49°32' W 000°22'1413.8
2015-Jun-27 02:33N 49°45' W 000°23'1615.6
2015-Jun-27 01:32N 49°59' W 000°37'1915.5
2015-Jun-27 00:18N 50°17' W 000°45'1216.1
2015-Jun-26 23:32N 50°29' W 000°52'1515.6
2015-Jun-26 22:33N 50°43' W 001°00'7 6.7
2015-Jun-26 21:33N 50°49' W 001°06'0 0.0
2015-Jun-26 20:33N 50°49' W 001°06'4 4.4
2015-Jun-26 19:33N 50°44' W 001°04'1918.4
2015-Jun-26 18:32N 50°27' W 000°52'2219.0
2015-Jun-26 17:21N 50°06' W 000°39'1519.0
2015-Jun-26 16:33N 49°52' W 000°32'1918.9
2015-Jun-26 15:33N 49°34' W 000°23'1817.6
2015-Jun-26 14:33N 49°17' W 000°15'0 0.1
2015-Jun-26 13:34N 49°17' W 000°15'2 1.9
2015-Jun-26 12:34N 49°19' W 000°15'2120.6
2015-Jun-26 11:33N 49°39' W 000°24'2121.0
2015-Jun-26 10:33N 49°58' W 000°37'1919.3
2015-Jun-26 09:33N 50°16' W 000°47'2019.5
2015-Jun-26 08:33N 50°35' W 000°57'1515.0
2015-Jun-26 07:34N 50°48' W 001°07'1 0.8
2015-Jun-26 06:33N 50°49' W 001°06'0 0.1
2015-Jun-26 05:33N 50°49' W 001°06'1212.4
2015-Jun-26 04:33N 50°37' W 000°59'1514.0
2015-Jun-26 03:28N 50°22' W 000°52'1111.5
2015-Jun-26 02:33N 50°14' W 000°43'1111.5
2015-Jun-26 01:33N 50°03' W 000°38'1211.6
2015-Jun-26 00:33N 49°52' W 000°32'1211.7
2015-Jun-25 23:33N 49°41' W 000°26'1211.9
2015-Jun-25 22:33N 49°30' W 000°18'1211.8
2015-Jun-25 21:33N 49°19' W 000°15'1 1.3
2015-Jun-25 20:33N 49°17' W 000°15'0 0.0
2015-Jun-25 19:33N 49°17' W 000°15'1211.6
2015-Jun-25 18:33N 49°29' W 000°20'2020.2
2015-Jun-25 17:33N 49°48' W 000°28'2120.8
2015-Jun-25 16:33N 50°07' W 000°39'2120.6
2015-Jun-25 15:33N 50°27' W 000°51'1918.8
2015-Jun-25 14:33N 50°44' W 001°03'5 5.2
2015-Jun-25 13:33N 50°49' W 001°06'0 0.0
2015-Jun-25 12:33N 50°49' W 001°06'3 3.2
2015-Jun-25 11:33N 50°46' W 001°05'1615.5
2015-Jun-25 10:33N 50°32' W 000°54'2120.7
2015-Jun-25 09:33N 50°12' W 000°44'2221.9
2015-Jun-25 08:33N 49°52' W 000°32'2221.7
2015-Jun-25 07:33N 49°31' W 000°20'1414.4
2015-Jun-25 06:33N 49°17' W 000°15'0 0.0
2015-Jun-25 05:33N 49°17' W 000°15'0 0.1
2015-Jun-25 04:34N 49°17' W 000°15'1413.9
2015-Jun-25 03:33N 49°31' W 000°20'1212.4
2015-Jun-25 02:33N 49°42' W 000°26'1312.9
2015-Jun-25 01:33N 49°55' W 000°33'1312.4
2015-Jun-25 00:30N 50°07' W 000°38'1415.0
2015-Jun-24 23:34N 50°21' W 000°46'1616.4
2015-Jun-24 22:34N 50°36' W 000°56'1413.7
2015-Jun-24 21:33N 50°48' W 001°07'1 1.2
2015-Jun-24 20:34N 50°49' W 001°06'0 0.0
2015-Jun-24 19:34N 50°49' W 001°06'0 0.0
2015-Jun-24 18:34N 50°49' W 001°06'  
Track history (hours):
 
Tides and Currents Weather Stations Pressure Air Temp Water Temp Dewpoint Dewpoint Depression Visibility Wind Speed Wind Dir Waves Ship Positions

Mont Saint Michel

Last reported at 2015-Jul-04 18:33 UTC. Time now 2015-Jul-04 19:02 UTC.
Position N 49°30' W 000°18'.

Length 173 m; beam 29 m.

Type: Ship. MMSI: 227023100.

Date/timePositionNaut miles runAvg speedWind from/ knotsBaromVisibWave heightAir tempDewpointWater temp
2015-Jul-04 18:33N 49°30' W 000°18'2120.6
2015-Jul-04 17:33N 49°49' W 000°30'2020.2
2015-Jul-04 16:33N 50°08' W 000°40'2020.3
2015-Jul-04 15:33N 50°27' W 000°51'2019.6
2015-Jul-04 14:33N 50°44' W 001°05'4 4.3
2015-Jul-04 13:33N 50°49' W 001°06'0 0.0
2015-Jul-04 12:33N 50°49' W 001°06'7 7.3
2015-Jul-04 11:34N 50°42' W 001°01'1918.9
2015-Jul-04 10:33N 50°24' W 000°49'2220.6
2015-Jul-04 09:30N 50°04' W 000°39'1819.5
2015-Jul-04 08:33N 49°47' W 000°28'2019.7
2015-Jul-04 07:33N 49°28' W 000°18'1111.2
2015-Jul-04 06:33N 49°17' W 000°15'0 0.0
2015-Jul-04 05:33N 49°17' W 000°15'0 0.1
2015-Jul-04 04:33N 49°17' W 000°15'1414.5
2015-Jul-04 03:33N 49°31' W 000°21'1919.0
2015-Jul-04 02:33N 49°49' W 000°32'1514.7
2015-Jul-04 01:33N 50°03' W 000°40'2015.1
2015-Jul-04 00:16N 50°21' W 000°52'1217.4
2015-Jul-03 23:33N 50°33' W 000°55'1313.1
2015-Jul-03 22:33N 50°45' W 001°05'4 4.2
2015-Jul-03 21:33N 50°49' W 001°06'0 0.0
2015-Jul-03 20:33N 50°49' W 001°06'6 6.0
2015-Jul-03 19:33N 50°43' W 001°01'1818.0
2015-Jul-03 18:33N 50°27' W 000°50'4120.7
2015-Jul-03 16:33N 49°48' W 000°29'2121.0
2015-Jul-03 15:33N 49°28' W 000°19'1110.8
2015-Jul-03 14:33N 49°17' W 000°15'0 0.0
2015-Jul-03 13:33N 49°17' W 000°15'2 2.5
2015-Jul-03 12:33N 49°20' W 000°14'2020.3
2015-Jul-03 11:33N 49°39' W 000°26'2019.5
2015-Jul-03 10:33N 49°57' W 000°35'2020.1
2015-Jul-03 09:32N 50°17' W 000°45'2020.8
2015-Jul-03 08:33N 50°36' W 000°56'1414.2
2015-Jul-03 07:33N 50°49' W 001°06'0 0.0
2015-Jul-03 06:33N 50°49' W 001°06'0 0.1
2015-Jul-03 05:33N 50°49' W 001°06'1212.3
2015-Jul-03 04:34N 50°38' W 000°58'1413.6
2015-Jul-03 03:33N 50°24' W 000°53'1211.6
2015-Jul-03 02:31N 50°13' W 000°47'1212.3
2015-Jul-03 01:33N 50°02' W 000°41'1312.6
2015-Jul-03 00:33N 49°50' W 000°33'1212.2
2015-Jul-02 23:33N 49°39' W 000°26'1111.1
2015-Jul-02 22:33N 49°29' W 000°19'1111.2
2015-Jul-02 21:33N 49°18' W 000°15'1 0.5
2015-Jul-02 20:34N 49°17' W 000°15'0 0.0
2015-Jul-02 19:34N 49°17' W 000°15'1211.7
2015-Jul-02 18:33N 49°29' W 000°16'2019.6
2015-Jul-02 17:33N 49°47' W 000°27'4120.0
2015-Jul-02 15:32N 50°24' W 000°52'2020.0
2015-Jul-02 14:33N 50°43' W 001°02'6 6.2
2015-Jul-02 13:34N 50°49' W 001°06'0 0.0
2015-Jul-02 12:33N 50°49' W 001°06'6 6.3
2015-Jul-02 11:34N 50°43' W 001°02'2020.2
2015-Jul-02 10:34N 50°25' W 000°46'2120.8
2015-Jul-02 09:33N 50°05' W 000°40'2020.0
2015-Jul-02 08:34N 49°46' W 000°30'2020.2
2015-Jul-02 07:34N 49°27' W 000°19'1010.2
2015-Jul-02 06:33N 49°17' W 000°15'0 0.0
2015-Jul-02 05:33N 49°17' W 000°15'0 0.1
2015-Jul-02 04:33N 49°17' W 000°15'1413.9
2015-Jul-02 03:34N 49°31' W 000°20'1717.0
2015-Jul-02 02:34N 49°47' W 000°29'1211.4
2015-Jul-02 01:31N 49°58' W 000°35'1110.7
2015-Jul-02 00:32N 50°08' W 000°38'1514.9
2015-Jul-01 23:32N 50°22' W 000°45'1515.7
2015-Jul-01 22:33N 50°36' W 000°57'1413.6
2015-Jul-01 21:34N 50°48' W 001°07'1 1.1
2015-Jul-01 20:34N 50°49' W 001°06'0 0.0
2015-Jul-01 19:34N 50°49' W 001°06'0 0.0
2015-Jul-01 18:34N 50°49' W 001°06'5 4.8
2015-Jul-01 17:33N 50°44' W 001°04'1716.9
2015-Jul-01 16:33N 50°29' W 000°53'1818.5
2015-Jul-01 15:33N 50°11' W 000°43'2019.6
2015-Jul-01 14:33N 49°53' W 000°32'1919.2
2015-Jul-01 13:33N 49°35' W 000°21'1818.3
2015-Jul-01 12:34N 49°17' W 000°15'0 0.1
2015-Jul-01 11:33N 49°17' W 000°15'0 0.0
2015-Jul-01 10:33N 49°17' W 000°15'0 0.0
2015-Jul-01 09:33N 49°17' W 000°15'0 0.0
2015-Jul-01 08:33N 49°17' W 000°15'0 0.0
2015-Jul-01 07:33N 49°17' W 000°15'0 0.0
2015-Jul-01 06:33N 49°17' W 000°15'0 0.0
2015-Jul-01 05:33N 49°17' W 000°15'1111.4
2015-Jul-01 04:33N 49°28' W 000°19'1817.7
2015-Jul-01 03:34N 49°45' W 000°29'1514.8
2015-Jul-01 02:32N 49°59' W 000°38'1414.1
2015-Jul-01 01:33N 50°12' W 000°45'1414.1
2015-Jul-01 00:34N 50°25' W 000°52'1414.0
2015-Jun-30 23:33N 50°39' W 000°59'1111.0
2015-Jun-30 22:33N 50°49' W 001°06'0 0.1
2015-Jun-30 21:33N 50°49' W 001°06'0 0.0
2015-Jun-30 20:33N 50°49' W 001°06'7 7.0
2015-Jun-30 19:33N 50°42' W 001°02'2020.0
2015-Jun-30 18:33N 50°24' W 000°48'2020.3
2015-Jun-30 17:33N 50°04' W 000°40'2020.4
2015-Jun-30 16:33N 49°45' W 000°30'2120.7
2015-Jun-30 15:33N 49°26' W 000°18'9 8.9
2015-Jun-30 14:33N 49°17' W 000°15'0 0.0
2015-Jun-30 13:33N 49°17' W 000°15'3 2.6
2015-Jun-30 12:33N 49°20' W 000°14'2019.8
2015-Jun-30 11:34N 49°39' W 000°25'2120.5
2015-Jun-30 10:33N 49°58' W 000°35'2120.7
2015-Jun-30 09:33N 50°17' W 000°46'2120.8
2015-Jun-30 08:33N 50°37' W 000°57'1313.0
2015-Jun-30 07:33N 50°49' W 001°06'0 0.0
2015-Jun-30 06:33N 50°49' W 001°06'0 0.1
2015-Jun-30 05:33N 50°49' W 001°06'1111.3
2015-Jun-30 04:33N 50°39' W 000°58'1111.3
2015-Jun-30 03:33N 50°28' W 000°52'1111.4
2015-Jun-30 02:33N 50°17' W 000°47'1111.3
2015-Jun-30 01:33N 50°06' W 000°43'1211.8
2015-Jun-30 00:33N 49°56' W 000°34'1211.7
2015-Jun-29 23:33N 49°45' W 000°26'1211.9
2015-Jun-29 22:33N 49°34' W 000°22'1211.6
2015-Jun-29 21:33N 49°23' W 000°15'5 5.4
2015-Jun-29 20:33N 49°17' W 000°15'0 0.0
2015-Jun-29 19:33N 49°17' W 000°15'1211.6
2015-Jun-29 18:33N 49°29' W 000°19'1918.6
2015-Jun-29 17:33N 49°46' W 000°30'2019.8
2015-Jun-29 16:33N 50°04' W 000°43'1919.3
2015-Jun-29 15:33N 50°22' W 000°52'1919.2
2015-Jun-29 14:33N 50°41' W 000°58'9 9.2
2015-Jun-29 13:33N 50°49' W 001°06'0 0.0
2015-Jun-29 12:33N 50°49' W 001°06'4 4.2
2015-Jun-29 11:34N 50°45' W 001°05'1817.6
2015-Jun-29 10:33N 50°29' W 000°52'1817.8
2015-Jun-29 09:34N 50°12' W 000°44'2019.5
2015-Jun-29 08:33N 49°53' W 000°35'1919.4
2015-Jun-29 07:33N 49°35' W 000°23'1817.8
2015-Jun-29 06:33N 49°18' W 000°15'1 1.0
2015-Jun-29 05:33N 49°17' W 000°15'0 0.0
2015-Jun-29 04:34N 49°17' W 000°15'1313.3
2015-Jun-29 03:34N 49°30' W 000°18'1615.6
2015-Jun-29 02:33N 49°44' W 000°29'1515.0
2015-Jun-29 01:34N 49°58' W 000°39'1514.4
2015-Jun-29 00:30N 50°11' W 000°51'1616.0
2015-Jun-28 23:30N 50°27' W 000°54'1516.1
2015-Jun-28 22:33N 50°42' W 000°59'8 8.2
2015-Jun-28 21:33N 50°49' W 001°06'0 0.0
2015-Jun-28 20:33N 50°49' W 001°06'4 4.0
2015-Jun-28 19:33N 50°45' W 001°05'2018.4
2015-Jun-28 18:29N 50°27' W 000°53'1818.9
2015-Jun-28 17:33N 50°11' W 000°41'1919.1
2015-Jun-28 16:33N 49°53' W 000°32'1919.3
2015-Jun-28 15:33N 49°35' W 000°21'1717.2
2015-Jun-28 14:33N 49°18' W 000°15'1 0.5
2015-Jun-28 13:33N 49°17' W 000°15'2 2.1
2015-Jun-28 12:34N 49°19' W 000°15'1919.1
2015-Jun-28 11:33N 49°38' W 000°24'2019.6
2015-Jun-28 10:33N 49°56' W 000°34'1919.4
2015-Jun-28 09:34N 50°14' W 000°44'2020.2
2015-Jun-28 08:34N 50°33' W 000°56'1616.3
2015-Jun-28 07:33N 50°48' W 001°07'1 1.0
2015-Jun-28 06:33N 50°49' W 001°06'0 0.1
2015-Jun-28 05:34N 50°49' W 001°06'1211.8
2015-Jun-28 04:33N 50°38' W 000°58'1211.8
2015-Jun-28 03:33N 50°27' W 000°51'1110.9
2015-Jun-28 02:33N 50°17' W 000°44'1110.8
2015-Jun-28 01:33N 50°08' W 000°37'1111.1
2015-Jun-28 00:33N 49°57' W 000°29'1111.0
2015-Jun-27 23:33N 49°46' W 000°28'1111.4
2015-Jun-27 22:33N 49°36' W 000°23'1111.4
2015-Jun-27 21:33N 49°25' W 000°17'8 7.6
2015-Jun-27 20:33N 49°17' W 000°15'0 0.0
2015-Jun-27 19:33N 49°17' W 000°15'1111.5
2015-Jun-27 18:34N 49°29' W 000°17'2019.7
2015-Jun-27 17:34N 49°47' W 000°28'2019.9
2015-Jun-27 16:34N 50°06' W 000°39'1919.4
2015-Jun-27 15:33N 50°24' W 000°50'1918.8
2015-Jun-27 14:34N 50°42' W 000°58'8 8.4
2015-Jun-27 13:34N 50°49' W 001°06'0 0.0
2015-Jun-27 12:34N 50°49' W 001°06'5 5.1
2015-Jun-27 11:33N 50°44' W 001°03'1818.0
2015-Jun-27 10:33N 50°27' W 000°52'1918.8
2015-Jun-27 09:33N 50°10' W 000°40'1919.2
2015-Jun-27 08:33N 49°52' W 000°31'1919.0
2015-Jun-27 07:34N 49°34' W 000°21'1716.7
2015-Jun-27 06:33N 49°18' W 000°15'0 0.3
2015-Jun-27 05:33N 49°17' W 000°15'0 0.1
2015-Jun-27 04:34N 49°17' W 000°15'1515.1
2015-Jun-27 03:33N 49°32' W 000°22'1413.8
2015-Jun-27 02:33N 49°45' W 000°23'1615.6
2015-Jun-27 01:32N 49°59' W 000°37'1915.5
2015-Jun-27 00:18N 50°17' W 000°45'1216.1
2015-Jun-26 23:32N 50°29' W 000°52'1515.6
2015-Jun-26 22:33N 50°43' W 001°00'7 6.7
2015-Jun-26 21:33N 50°49' W 001°06'0 0.0
2015-Jun-26 20:33N 50°49' W 001°06'4 4.4
2015-Jun-26 19:33N 50°44' W 001°04'1918.4
2015-Jun-26 18:32N 50°27' W 000°52'2219.0
2015-Jun-26 17:21N 50°06' W 000°39'1519.0
2015-Jun-26 16:33N 49°52' W 000°32'1918.9
2015-Jun-26 15:33N 49°34' W 000°23'1817.6
2015-Jun-26 14:33N 49°17' W 000°15'0 0.1
2015-Jun-26 13:34N 49°17' W 000°15'2 1.9
2015-Jun-26 12:34N 49°19' W 000°15'2120.6
2015-Jun-26 11:33N 49°39' W 000°24'2121.0
2015-Jun-26 10:33N 49°58' W 000°37'1919.3
2015-Jun-26 09:33N 50°16' W 000°47'2019.5
2015-Jun-26 08:33N 50°35' W 000°57'1515.0
2015-Jun-26 07:34N 50°48' W 001°07'1 0.8
2015-Jun-26 06:33N 50°49' W 001°06'0 0.1
2015-Jun-26 05:33N 50°49' W 001°06'1212.4
2015-Jun-26 04:33N 50°37' W 000°59'1514.0
2015-Jun-26 03:28N 50°22' W 000°52'1111.5
2015-Jun-26 02:33N 50°14' W 000°43'1111.5
2015-Jun-26 01:33N 50°03' W 000°38'1211.6
2015-Jun-26 00:33N 49°52' W 000°32'1211.7
2015-Jun-25 23:33N 49°41' W 000°26'1211.9
2015-Jun-25 22:33N 49°30' W 000°18'1211.8
2015-Jun-25 21:33N 49°19' W 000°15'1 1.3
2015-Jun-25 20:33N 49°17' W 000°15'0 0.0
2015-Jun-25 19:33N 49°17' W 000°15'1211.6
2015-Jun-25 18:33N 49°29' W 000°20'2020.2
2015-Jun-25 17:33N 49°48' W 000°28'2120.8
2015-Jun-25 16:33N 50°07' W 000°39'2120.6
2015-Jun-25 15:33N 50°27' W 000°51'1918.8
2015-Jun-25 14:33N 50°44' W 001°03'5 5.2
2015-Jun-25 13:33N 50°49' W 001°06'0 0.0
2015-Jun-25 12:33N 50°49' W 001°06'3 3.2
2015-Jun-25 11:33N 50°46' W 001°05'1615.5
2015-Jun-25 10:33N 50°32' W 000°54'2120.7
2015-Jun-25 09:33N 50°12' W 000°44'2221.9
2015-Jun-25 08:33N 49°52' W 000°32'2221.7
2015-Jun-25 07:33N 49°31' W 000°20'1414.4
2015-Jun-25 06:33N 49°17' W 000°15'0 0.0
2015-Jun-25 05:33N 49°17' W 000°15'0 0.1
2015-Jun-25 04:34N 49°17' W 000°15'1413.9
2015-Jun-25 03:33N 49°31' W 000°20'1212.4
2015-Jun-25 02:33N 49°42' W 000°26'1312.9
2015-Jun-25 01:33N 49°55' W 000°33'1312.4
2015-Jun-25 00:30N 50°07' W 000°38'1415.0
2015-Jun-24 23:34N 50°21' W 000°46'1616.4
2015-Jun-24 22:34N 50°36' W 000°56'1413.7
2015-Jun-24 21:33N 50°48' W 001°07'1 1.2
2015-Jun-24 20:34N 50°49' W 001°06'0 0.0
2015-Jun-24 19:34N 50°49' W 001°06'0 0.0
2015-Jun-24 18:34N 50°49' W 001°06'  

Dump ship's entire track history